Pathfork, Kentucky
Current Conditions -  °F | °C
As of 3:15 PM on Friday 31 Oct 2014 (Local Time) from KI35 Reporting Station
Overcast Overcast  
Wind Chill:   Ceiling: 1400
Heat Index:   Visibility: 10mi
Dew Point:   Wind: 5mph
Humidity: 100%   Direction: 90°E
Pressure: 29.88"   Gusts: NA
Location:  36.76°N, 83.46°W
Report Text: KI35 311915Z AUTO 09004KT 10SM OVC014 06/06 A2988 RMK AO1
Loading
Personal Weather Stations






























Interactive Weather Map
Tropical Storm Tracking
New forecast layout! Learn more

10-Day Weather Forecast

Advertisements
Track Severe Weather on mobile